Time;durP1;ratioP1;P1;durP2;ratioP2;P2;SDS_P1;SDS_P2;PMS_P1;PMS_P2;Temp;Humidity;BMP_temperature;BMP_pressure;BME280_temperature;BME280_humidity;BME280_pressure;Samples;Min_cycle;Max_cycle;Signal;HPM_P1;HPM_P2
2023/05/26 00:02:01;;;;;;;10.10;8.50;;;;;;;18.14;64.30;100555.09;103432;1255;96504;-76
2023/05/26 00:04:29;;;;;;;10.00;8.50;;;;;;;18.14;64.26;100553.20;103210;1257;138738;-76
2023/05/26 00:06:56;;;;;;;12.70;9.00;;;;;;;18.10;64.18;100555.84;103330;1254;96438;-76
2023/05/26 00:09:24;;;;;;;11.60;9.70;;;;;;;18.09;64.51;100558.70;103204;1258;108789;-76
2023/05/26 00:11:52;;;;;;;10.40;9.30;;;;;;;18.07;64.61;100557.58;103255;1253;138808;-76
2023/05/26 00:14:19;;;;;;;10.50;9.10;;;;;;;18.09;64.60;100563.09;103310;1258;97693;-76
2023/05/26 00:16:47;;;;;;;12.80;9.70;;;;;;;18.08;64.69;100564.73;103199;1258;138593;-77
2023/05/26 00:19:17;;;;;;;12.70;10.00;;;;;;;18.06;64.79;100564.20;103366;1254;97692;-77
2023/05/26 00:21:45;;;;;;;11.20;10.00;;;;;;;18.03;64.91;100564.17;103330;1254;112194;-77
2023/05/26 00:24:12;;;;;;;13.50;10.40;;;;;;;17.96;64.90;100563.17;103197;1254;138628;-77
2023/05/26 00:26:39;;;;;;;13.20;10.50;;;;;;;17.87;65.15;100565.45;103352;1254;98382;-77
2023/05/26 00:29:06;;;;;;;10.70;9.30;;;;;;;17.83;65.48;100563.25;102948;1257;138710;-77
2023/05/26 00:31:54;;;;;;;13.60;9.30;;;;;;;17.82;65.49;100561.70;103291;1256;97897;-77
2023/05/26 00:34:21;;;;;;;13.00;9.20;;;;;;;17.78;65.22;100566.83;103237;1257;138638;-76
2023/05/26 00:36:48;;;;;;;10.70;7.40;;;;;;;17.74;64.98;100570.42;103252;1254;108634;-76
2023/05/26 00:39:16;;;;;;;9.90;7.00;;;;;;;17.69;64.57;100571.23;103286;1253;97772;-76
2023/05/26 00:41:44;;;;;;;11.40;6.60;;;;;;;17.67;64.29;100567.45;103178;1257;138275;-75
2023/05/26 00:44:11;;;;;;;8.80;6.20;;;;;;;17.69;64.02;100566.33;103348;1257;98767;-77
2023/05/26 00:46:40;;;;;;;10.60;6.50;;;;;;;17.71;63.69;100567.95;103255;1254;138344;-78
2023/05/26 00:49:07;;;;;;;9.30;6.90;;;;;;;17.71;63.23;100568.81;103223;1254;108368;-78
2023/05/26 00:51:35;;;;;;;11.00;6.00;;;;;;;17.70;62.96;100568.20;103275;1254;98377;-75
2023/05/26 00:54:03;;;;;;;9.30;6.30;;;;;;;17.69;62.70;100568.60;103257;1253;138495;-75
2023/05/26 00:56:32;;;;;;;7.80;5.80;;;;;;;17.65;62.58;100567.42;103125;1260;98040;-76
2023/05/26 00:59:02;;;;;;;9.50;6.60;;;;;;;17.68;62.54;100567.94;103104;1254;138352;-77
2023/05/26 01:01:29;;;;;;;9.10;6.20;;;;;;;17.65;62.20;100565.45;103197;1254;107091;-76
2023/05/26 01:03:58;;;;;;;8.20;5.80;;;;;;;17.57;61.87;100567.47;103382;1254;97768;-76
2023/05/26 01:06:26;;;;;;;6.80;5.70;;;;;;;17.50;61.96;100569.45;103329;1257;107881;-76
2023/05/26 01:08:53;;;;;;;10.60;5.90;;;;;;;17.43;61.84;100571.42;103256;1254;97803;-76
2023/05/26 01:11:26;;;;;;;12.80;6.00;;;;;;;17.33;61.70;100572.67;103166;1254;138432;-76
2023/05/26 01:13:58;;;;;;;10.40;5.90;;;;;;;17.24;61.81;100569.17;103344;1254;107388;-76
2023/05/26 01:16:30;;;;;;;10.20;5.80;;;;;;;17.16;61.78;100568.19;103148;1254;138824;-76
2023/05/26 01:19:02;;;;;;;11.10;5.60;;;;;;;17.09;61.94;100567.85;103364;1254;107618;-76
2023/05/26 01:21:33;;;;;;;7.70;5.00;;;;;;;17.10;62.00;100571.67;103684;1254;95909;-77
2023/05/26 01:24:27;;;;;;;8.90;6.10;;;;;;;17.07;61.88;100569.55;103239;1254;138417;-78
2023/05/26 01:27:10;;;;;;;10.50;5.70;;;;;;;16.95;61.84;100569.33;103179;1254;108603;-77
2023/05/26 01:29:39;;;;;;;9.60;5.50;;;;;;;16.86;62.02;100565.73;103233;1267;138638;-77
2023/05/26 01:32:15;;;;;;;8.80;5.60;;;;;;;16.80;62.23;100567.09;103146;1254;107491;-77
2023/05/26 01:34:42;;;;;;;7.40;5.60;;;;;;;16.78;62.43;100570.91;103147;1254;138417;-77
2023/05/26 01:37:10;;;;;;;9.90;5.80;;;;;;;16.72;62.48;100569.13;103357;1257;110810;-77
2023/05/26 01:39:38;;;;;;;10.40;6.20;;;;;;;16.65;62.55;100570.33;103131;1259;107598;-77
2023/05/26 01:42:11;;;;;;;7.40;5.90;;;;;;;16.55;62.70;100574.72;103081;1257;138629;-77
2023/05/26 01:45:03;;;;;;;8.70;6.00;;;;;;;16.50;62.97;100573.59;103193;1254;108295;-76
2023/05/26 01:47:32;;;;;;;9.10;6.60;;;;;;;16.47;63.23;100574.27;103152;1257;138472;-77
2023/05/26 01:50:02;;;;;;;10.40;6.40;;;;;;;16.39;63.42;100570.45;103244;1260;111268;-76
2023/05/26 01:52:31;;;;;;;8.20;6.60;;;;;;;16.32;63.77;100570.78;103685;1254;139826;-77
2023/05/26 01:55:02;;;;;;;9.20;6.40;;;;;;;16.30;63.93;100571.08;103336;1254;97825;-77
2023/05/26 01:57:31;;;;;;;8.30;6.50;;;;;;;16.26;64.18;100573.71;103276;1254;107553;-77
2023/05/26 01:59:59;;;;;;;8.80;6.90;;;;;;;16.21;64.32;100571.86;103031;1260;138817;-77
2023/05/26 02:02:26;;;;;;;12.00;6.60;;;;;;;16.18;64.55;100575.73;103220;1254;111593;-77
2023/05/26 02:04:54;;;;;;;8.90;6.20;;;;;;;16.15;64.77;100573.08;103209;1257;138950;-77
2023/05/26 02:07:22;;;;;;;10.90;6.60;;;;;;;16.14;64.92;100571.02;103315;1253;97783;-77
2023/05/26 02:09:50;;;;;;;7.40;6.10;;;;;;;16.17;64.81;100577.73;103288;1254;107430;-77
2023/05/26 02:12:17;;;;;;;6.80;6.10;;;;;;;16.13;64.70;100579.11;103028;1259;138941;-76
2023/05/26 02:14:45;;;;;;;9.40;6.20;;;;;;;16.11;64.86;100580.28;103252;1254;112354;-77
2023/05/26 02:17:17;;;;;;;11.20;6.50;;;;;;;16.08;64.80;100587.28;103089;1254;138829;-77
2023/05/26 02:19:44;;;;;;;8.60;6.10;;;;;;;16.06;64.98;100590.92;103225;1254;97760;-76
2023/05/26 02:22:12;;;;;;;10.70;6.40;;;;;;;16.07;65.15;100588.89;103080;1258;139504;-77
2023/05/26 02:24:40;;;;;;;8.00;5.90;;;;;;;16.09;65.02;100586.37;103183;1257;97777;-77
2023/05/26 02:27:08;;;;;;;9.80;6.00;;;;;;;16.09;64.99;100589.86;103061;1254;110622;-76
2023/05/26 02:29:35;;;;;;;9.00;5.90;;;;;;;16.13;64.90;100588.09;102950;1260;140227;-77
2023/05/26 02:32:03;;;;;;;7.90;5.90;;;;;;;16.14;64.82;100588.91;103055;1260;97791;-77
2023/05/26 02:34:30;;;;;;;11.70;6.60;;;;;;;16.14;64.83;100589.26;102962;1260;139006;-76
2023/05/26 02:36:58;;;;;;;9.20;6.00;;;;;;;16.14;64.76;100585.05;103224;1254;98250;-76
2023/05/26 02:39:25;;;;;;;10.30;6.00;;;;;;;16.14;64.71;100589.09;103174;1257;111511;-77
2023/05/26 02:41:53;;;;;;;10.50;6.00;;;;;;;16.15;64.77;100587.42;103043;1258;138655;-78
2023/05/26 02:44:21;;;;;;;7.70;5.10;;;;;;;16.18;64.58;100591.19;103374;1254;98436;-78
2023/05/26 02:46:59;;;;;;;11.40;5.90;;;;;;;16.19;64.45;100588.30;103138;1256;138482;-78
2023/05/26 02:49:26;;;;;;;8.20;5.70;;;;;;;16.20;64.45;100586.52;103251;1257;97768;-78
2023/05/26 02:51:54;;;;;;;10.90;6.00;;;;;;;16.19;64.39;100586.71;103240;1256;110249;-77
2023/05/26 02:54:21;;;;;;;10.90;6.20;;;;;;;16.19;64.25;100584.61;103185;1256;107716;-78
2023/05/26 02:56:49;;;;;;;10.70;5.50;;;;;;;16.20;64.34;100586.86;103184;1256;98396;-78
2023/05/26 02:59:16;;;;;;;11.60;6.00;;;;;;;16.20;64.18;100590.70;102966;1254;138490;-78
2023/05/26 03:01:43;;;;;;;9.20;5.90;;;;;;;16.19;64.05;100594.30;103218;1257;97877;-78
2023/05/26 03:04:11;;;;;;;8.70;5.50;;;;;;;16.17;63.97;100594.73;103252;1254;138931;-78
2023/05/26 03:06:41;;;;;;;8.10;6.00;;;;;;;16.17;63.97;100595.24;103875;1254;107684;-79
2023/05/26 03:09:10;;;;;;;9.90;6.10;;;;;;;16.16;64.11;100594.23;103387;1257;97908;-78
2023/05/26 03:11:40;;;;;;;10.60;7.40;;;;;;;16.15;63.97;100596.02;102970;1253;137315;-78
2023/05/26 03:14:07;;;;;;;8.70;5.70;;;;;;;16.16;63.96;100597.24;103021;1260;97801;-78
2023/05/26 03:16:35;;;;;;;7.20;5.70;;;;;;;16.18;64.13;100594.16;103143;1254;138459;-78
2023/05/26 03:19:03;;;;;;;12.60;6.50;;;;;;;16.22;64.10;100598.32;103126;1259;107722;-79
2023/05/26 03:21:31;;;;;;;8.80;5.70;;;;;;;16.21;63.87;100595.20;103181;1260;97817;-77
2023/05/26 03:24:17;;;;;;;12.20;5.90;;;;;;;16.22;64.04;100593.24;103196;1253;138070;-77
2023/05/26 03:26:46;;;;;;;12.30;5.80;;;;;;;16.28;64.15;100590.48;103216;1257;97775;-77
2023/05/26 03:29:14;;;;;;;8.30;6.00;;;;;;;16.34;64.09;100593.86;103048;1257;140118;-76
2023/05/26 03:31:42;;;;;;;10.70;6.30;;;;;;;16.40;64.09;100599.39;103176;1254;107153;-76
2023/05/26 03:34:20;;;;;;;10.40;5.80;;;;;;;16.43;63.97;100600.43;103093;1259;138817;-76
2023/05/26 03:36:49;;;;;;;9.60;5.50;;;;;;;16.48;64.10;100604.01;103262;1254;107678;-77
2023/05/26 03:39:21;;;;;;;8.10;5.60;;;;;;;16.56;64.04;100603.84;104383;1254;95986;-77
2023/05/26 03:41:49;;;;;;;8.80;5.90;;;;;;;16.65;63.90;100605.08;102968;1254;138584;-76
2023/05/26 03:44:19;;;;;;;7.10;5.50;;;;;;;16.75;63.64;100599.68;103037;1256;107603;-76
2023/05/26 03:46:46;;;;;;;14.10;6.70;;;;;;;16.82;63.47;100599.98;103001;1254;138574;-76
2023/05/26 03:49:14;;;;;;;14.00;6.20;;;;;;;16.94;63.50;100600.27;103195;1254;107179;-77
2023/05/26 03:51:41;;;;;;;11.80;5.90;;;;;;;17.07;63.59;100602.24;103260;1257;97794;-77
2023/05/26 03:54:09;;;;;;;10.30;6.20;;;;;;;17.18;63.39;100600.73;103064;1255;138699;-77
2023/05/26 03:56:36;;;;;;;8.70;6.00;;;;;;;17.31;63.32;100601.28;103108;1256;107278;-77
2023/05/26 03:59:04;;;;;;;10.90;5.40;;;;;;;17.41;63.27;100603.32;102987;1256;138475;-76
2023/05/26 04:01:33;;;;;;;13.20;6.60;;;;;;;17.53;63.17;100601.11;103133;1256;107695;-76
2023/05/26 04:04:00;;;;;;;10.30;6.80;;;;;;;17.63;62.97;100600.20;102899;1254;139006;-75
2023/05/26 04:06:30;;;;;;;12.10;6.30;;;;;;;17.73;62.39;100601.27;103183;1254;111194;-78
2023/05/26 04:08:59;;;;;;;8.20;6.30;;;;;;;17.83;62.12;100604.90;103279;1254;108893;-77
2023/05/26 04:11:28;;;;;;;9.00;6.30;;;;;;;17.91;61.71;100613.58;103008;1259;139112;-77
2023/05/26 04:13:55;;;;;;;10.00;5.90;;;;;;;17.98;61.64;100612.84;103060;1256;108136;-79
2023/05/26 04:16:23;;;;;;;9.60;5.90;;;;;;;18.09;61.35;100615.39;103105;1257;138776;-79
2023/05/26 04:18:50;;;;;;;7.70;5.80;;;;;;;18.19;61.05;100613.94;103277;1256;111402;-80
2023/05/26 04:21:17;;;;;;;10.20;6.00;;;;;;;18.29;60.90;100611.09;103237;1257;108368;-80
2023/05/26 04:23:47;;;;;;;8.20;5.50;;;;;;;18.41;60.53;100609.66;103105;1253;138981;-80
2023/05/26 04:26:16;;;;;;;7.90;5.70;;;;;;;18.54;60.00;100611.70;103145;1259;107823;-80
2023/05/26 04:28:57;;;;;;;9.50;6.00;;;;;;;18.68;59.66;100614.09;103150;1257;137800;-79
2023/05/26 04:31:40;;;;;;;11.00;5.60;;;;;;;18.75;59.26;100617.34;103327;1257;111713;-81
2023/05/26 04:34:21;;;;;;;10.20;5.50;;;;;;;18.83;59.01;100611.56;103189;1257;138965;-80
2023/05/26 04:37:14;;;;;;;10.10;5.40;;;;;;;18.91;58.32;100608.09;104067;1252;97844;-81
2023/05/26 04:39:41;;;;;;;9.80;5.30;;;;;;;18.94;57.56;100604.20;103069;1257;108993;-83
2023/05/26 04:42:09;;;;;;;17.90;9.60;;;;;;;18.99;57.17;100606.01;103109;1254;137755;-81
2023/05/26 04:44:38;;;;;;;9.40;5.50;;;;;;;19.04;57.07;100609.02;103199;1254;112118;-82
2023/05/26 04:47:08;;;;;;;7.30;4.50;;;;;;;19.13;56.84;100609.20;102998;1259;137978;-81
2023/05/26 04:49:36;;;;;;;8.30;5.30;;;;;;;19.23;56.74;100613.64;103291;1254;98337;-81
2023/05/26 04:52:05;;;;;;;10.00;5.40;;;;;;;19.33;56.49;100614.28;103194;1253;137727;-77
2023/05/26 04:54:34;;;;;;;11.80;5.90;;;;;;;19.41;56.45;100618.06;103099;1256;98115;-79
2023/05/26 04:57:02;;;;;;;11.10;5.30;;;;;;;19.47;55.84;100615.89;103287;1254;110484;-82
2023/05/26 04:59:47;;;;;;;9.30;6.00;;;;;;;19.55;55.73;100618.02;103199;1253;137883;-82
2023/05/26 05:02:16;;;;;;;10.20;5.80;;;;;;;19.66;55.62;100616.44;103248;1257;97890;-82
2023/05/26 05:05:19;;;;;;;14.10;6.40;;;;;;;19.81;55.14;100616.18;102729;1260;137846;-82
2023/05/26 05:07:50;;;;;;;10.50;5.10;;;;;;;19.88;54.94;100615.73;103545;1259;97803;-81
2023/05/26 05:10:19;;;;;;;7.40;4.90;;;;;;;20.02;54.64;100616.41;103131;1259;138851;-82
2023/05/26 05:12:47;;;;;;;11.40;5.30;;;;;;;20.21;54.40;100614.27;103255;1253;108936;-80
2023/05/26 05:15:18;;;;;;;10.00;4.80;;;;;;;20.42;53.74;100608.25;103189;1255;97861;-82
2023/05/26 05:17:46;;;;;;;11.40;5.60;;;;;;;20.57;52.93;100607.10;103190;1253;137777;-80
2023/05/26 05:20:14;;;;;;;9.20;5.30;;;;;;;20.66;52.71;100608.79;103134;1254;97863;-81
2023/05/26 05:22:46;;;;;;;15.00;5.40;;;;;;;20.67;52.41;100607.48;103223;1257;138200;-68
2023/05/26 05:25:15;;;;;;;11.30;5.30;;;;;;;20.62;52.51;100606.40;103305;1253;108476;-66
2023/05/26 05:27:42;;;;;;;16.20;5.40;;;;;;;20.59;52.72;100611.56;103529;1253;97816;-71
2023/05/26 05:30:12;;;;;;;10.20;5.40;;;;;;;20.57;52.67;100612.59;103561;1259;137793;-67
2023/05/26 05:32:39;;;;;;;12.00;6.10;;;;;;;20.56;52.42;100610.70;103317;1259;97890;-66
2023/05/26 05:35:10;;;;;;;12.50;4.90;;;;;;;20.49;52.26;100609.39;103623;1253;137830;-65
2023/05/26 05:37:38;;;;;;;7.60;4.70;;;;;;;20.46;52.14;100615.98;103301;1253;107544;-63
2023/05/26 05:40:09;;;;;;;13.20;5.10;;;;;;;20.45;51.95;100623.96;103457;1254;137948;-64
2023/05/26 05:42:36;;;;;;;13.60;5.60;;;;;;;20.50;52.37;100625.44;103666;1256;107223;-64
2023/05/26 05:45:04;;;;;;;10.30;5.00;;;;;;;20.54;52.18;100624.83;104026;1257;96393;-64
2023/05/26 05:47:51;;;;;;;14.30;6.00;;;;;;;20.56;51.91;100629.48;103234;1256;137853;-64
2023/05/26 05:50:19;;;;;;;11.10;4.90;;;;;;;20.55;51.76;100629.02;103381;1256;106923;-65
2023/05/26 05:52:47;;;;;;;7.90;4.60;;;;;;;20.59;51.83;100630.67;103524;1255;138832;-64
2023/05/26 05:55:15;;;;;;;10.50;4.90;;;;;;;20.68;51.72;100628.42;103558;1254;107573;-65
2023/05/26 05:57:43;;;;;;;12.00;5.30;;;;;;;20.93;51.46;100626.38;103377;1253;97779;-65
2023/05/26 06:00:12;;;;;;;10.40;5.00;;;;;;;21.23;51.12;100627.30;103231;1253;137825;-65
2023/05/26 06:02:40;;;;;;;10.80;4.50;;;;;;;21.94;51.30;100628.84;103421;1257;106905;-65
2023/05/26 06:05:09;;;;;;;7.70;4.40;;;;;;;23.57;49.86;100624.67;103576;1254;137954;-65
2023/05/26 06:07:36;;;;;;;8.90;4.60;;;;;;;25.10;47.76;100617.77;103826;1252;107604;-68
2023/05/26 06:10:04;;;;;;;7.70;4.10;;;;;;;26.29;45.86;100615.48;103333;1254;137956;-67
2023/05/26 06:12:32;;;;;;;5.90;3.90;;;;;;;27.73;43.97;100611.71;103393;1254;112280;-65
2023/05/26 06:15:00;;;;;;;7.50;3.90;;;;;;;29.22;42.11;100600.71;103272;1257;107541;-66
2023/05/26 06:17:27;;;;;;;7.30;4.00;;;;;;;30.64;40.47;100600.81;103277;1259;138417;-67
2023/05/26 06:19:55;;;;;;;7.70;3.70;;;;;;;31.86;38.50;100603.76;103536;1253;106756;-67
2023/05/26 06:22:22;;;;;;;7.00;3.60;;;;;;;32.90;36.97;100602.20;103231;1259;138516;-67
2023/05/26 06:24:50;;;;;;;9.30;3.80;;;;;;;33.89;35.28;100600.73;103434;1254;103208;-67
2023/05/26 06:27:18;;;;;;;7.70;3.80;;;;;;;34.69;33.98;100603.10;103431;1254;100420;-67
2023/05/26 06:29:46;;;;;;;5.40;3.30;;;;;;;35.34;32.47;100600.36;103668;1254;138745;-67
2023/05/26 06:32:13;;;;;;;9.00;3.70;;;;;;;35.94;31.48;100604.28;103302;1253;100208;-67
2023/05/26 06:34:41;;;;;;;6.10;3.30;;;;;;;36.52;30.58;100604.77;103176;1253;138825;-75
2023/05/26 06:37:09;;;;;;;9.30;3.80;;;;;;;37.12;29.70;100600.46;103752;1256;103925;-68
2023/05/26 06:39:36;;;;;;;14.30;3.70;;;;;;;37.64;28.76;100598.10;103348;1253;100579;-67
2023/05/26 06:42:07;;;;;;;14.90;3.40;;;;;;;38.09;28.03;100598.25;103511;1256;138667;-68
2023/05/26 06:44:35;;;;;;;10.70;3.30;;;;;;;38.49;27.43;100597.98;103321;1256;100863;-68
2023/05/26 06:47:02;;;;;;;10.00;3.20;;;;;;;38.87;26.88;100600.78;103175;1256;137982;-68
2023/05/26 06:49:33;;;;;;;13.30;4.00;;;;;;;39.22;25.79;100600.06;103356;1254;103431;-69
2023/05/26 06:52:08;;;;;;;7.90;3.20;;;;;;;39.35;25.13;100603.70;103191;1257;139191;-69
2023/05/26 06:54:35;;;;;;;11.60;3.30;;;;;;;39.58;25.20;100608.40;103475;1254;97982;-69
2023/05/26 06:57:03;;;;;;;8.60;2.80;;;;;;;39.96;24.86;100609.14;103794;1256;99046;-67
2023/05/26 06:59:31;;;;;;;6.40;3.00;;;;;;;40.33;24.47;100607.19;103264;1254;138689;-67
2023/05/26 07:01:58;;;;;;;12.60;4.00;;;;;;;40.63;24.26;100608.86;103365;1253;104788;-68
2023/05/26 07:04:26;;;;;;;9.40;3.70;;;;;;;41.11;23.77;100607.98;103204;1253;270655;-69
2023/05/26 07:06:53;;;;;;;6.50;3.40;;;;;;;41.61;23.10;100610.99;103391;1257;97855;-68
2023/05/26 07:09:21;;;;;;;7.40;3.30;;;;;;;41.67;22.44;100611.40;103319;1259;98159;-68
2023/05/26 07:11:52;;;;;;;6.00;3.40;;;;;;;41.37;21.89;100611.21;103058;1256;138027;-68
2023/05/26 07:14:42;;;;;;;8.50;3.30;;;;;;;41.02;21.79;100612.86;103150;1254;105418;-68
2023/05/26 07:17:10;;;;;;;6.30;4.40;;;;;;;40.92;21.90;100616.81;103048;1253;137799;-68
2023/05/26 07:19:38;;;;;;;10.30;3.60;;;;;;;41.07;21.82;100611.66;103423;1253;97780;-68
2023/05/26 07:22:06;;;;;;;8.40;3.50;;;;;;;41.17;21.46;100607.94;103341;1254;138030;-68
2023/05/26 07:24:37;;;;;;;6.30;3.50;;;;;;;41.24;21.54;100604.63;103390;1253;97876;-68
2023/05/26 07:27:05;;;;;;;9.00;3.50;;;;;;;41.32;21.39;100602.27;103370;1253;103114;-67
2023/05/26 07:29:33;;;;;;;9.50;3.60;;;;;;;41.42;21.17;100606.88;103169;1259;138498;-68
2023/05/26 07:32:01;;;;;;;6.50;3.60;;;;;;;41.34;20.93;100606.45;103468;1257;97806;-68
2023/05/26 07:34:29;;;;;;;5.00;3.30;;;;;;;41.18;20.95;100610.52;103351;1257;137814;-68
2023/05/26 07:36:57;;;;;;;9.30;3.40;;;;;;;41.17;21.15;100609.40;103402;1256;97771;-68
2023/05/26 07:39:24;;;;;;;7.40;4.10;;;;;;;40.77;21.04;100617.56;103407;1254;103790;-67
2023/05/26 07:41:52;;;;;;;18.20;4.50;;;;;;;40.29;21.28;100620.65;103245;1254;138166;-68
2023/05/26 07:44:19;;;;;;;10.40;3.60;;;;;;;40.41;21.40;100617.23;103398;1254;97776;-68
2023/05/26 07:46:46;;;;;;;11.10;3.80;;;;;;;39.90;21.37;100618.41;103375;1254;138110;-68
2023/05/26 07:49:14;;;;;;;8.60;3.60;;;;;;;39.03;21.35;100616.13;103855;1254;97894;-67
2023/05/26 07:51:41;;;;;;;7.50;3.70;;;;;;;38.47;21.87;100617.87;103423;1254;103384;-67
2023/05/26 07:54:09;;;;;;;8.70;4.10;;;;;;;37.92;21.93;100616.58;103233;1254;137954;-75
2023/05/26 07:56:36;;;;;;;11.20;4.20;;;;;;;37.59;22.25;100611.05;103357;1253;97719;-73
2023/05/26 07:59:03;;;;;;;9.70;4.70;;;;;;;37.65;22.43;100611.69;103235;1253;137975;-73
2023/05/26 08:01:30;;;;;;;9.70;4.10;;;;;;;37.78;22.45;100613.36;103399;1257;97775;-73
2023/05/26 08:03:58;;;;;;;7.10;4.60;;;;;;;37.40;22.56;100616.73;103493;1253;104201;-72
2023/05/26 08:06:25;;;;;;;11.20;4.30;;;;;;;36.76;22.78;100620.69;103423;1254;98815;-73
2023/05/26 08:08:54;;;;;;;9.40;4.30;;;;;;;36.60;23.20;100619.56;103347;1254;97903;-72
2023/05/26 08:11:22;;;;;;;11.40;4.10;;;;;;;36.76;23.20;100613.08;103245;1254;137607;-73
2023/05/26 08:13:50;;;;;;;9.40;4.40;;;;;;;36.60;22.92;100617.10;103417;1253;97793;-75
2023/05/26 08:16:17;;;;;;;9.00;3.90;;;;;;;35.57;23.30;100623.88;103522;1256;139471;-75
2023/05/26 08:18:45;;;;;;;8.90;4.60;;;;;;;34.46;24.19;100625.50;103484;1254;100043;-73
2023/05/26 08:21:12;;;;;;;8.70;4.70;;;;;;;33.44;24.95;100626.23;103358;1253;97755;-72
2023/05/26 08:23:41;;;;;;;7.90;4.30;;;;;;;32.86;25.78;100626.95;103261;1254;137913;-72
2023/05/26 08:26:09;;;;;;;8.20;4.30;;;;;;;32.84;26.11;100624.77;103353;1253;97822;-73
2023/05/26 08:28:36;;;;;;;10.20;5.00;;;;;;;32.89;26.22;100624.81;103241;1253;137903;-74
2023/05/26 08:31:03;;;;;;;9.90;4.60;;;;;;;32.16;26.25;100628.84;103391;1257;99399;-73
2023/05/26 08:33:31;;;;;;;9.40;4.90;;;;;;;31.58;27.12;100625.67;103387;1254;97690;-73
2023/05/26 08:35:59;;;;;;;6.50;4.40;;;;;;;31.68;27.26;100627.05;103223;1257;137769;-74
2023/05/26 08:38:26;;;;;;;7.90;4.10;;;;;;;31.68;27.28;100625.64;103648;1253;97680;-73
2023/05/26 08:41:01;;;;;;;8.40;4.60;;;;;;;31.92;27.47;100623.73;103277;1253;137677;-72
2023/05/26 08:43:38;;;;;;;10.50;4.10;;;;;;;31.83;27.48;100618.86;103363;1254;101077;-71
2023/05/26 08:46:13;;;;;;;10.80;4.40;;;;;;;31.37;27.53;100621.48;103705;1255;138402;-72
2023/05/26 08:48:42;;;;;;;9.30;4.30;;;;;;;31.11;27.84;100617.38;103708;1253;106884;-71
2023/05/26 08:51:11;;;;;;;13.50;4.30;;;;;;;31.03;28.19;100621.52;103447;1257;97804;-73
2023/05/26 08:53:41;;;;;;;13.10;4.50;;;;;;;31.06;28.58;100622.09;103473;1253;137787;-73
2023/05/26 08:56:10;;;;;;;7.80;3.90;;;;;;;30.86;28.66;100621.84;103397;1253;107662;-73
2023/05/26 08:58:39;;;;;;;10.40;4.90;;;;;;;30.48;28.84;100624.86;103389;1253;137991;-73
2023/05/26 09:01:06;;;;;;;10.80;4.60;;;;;;;29.85;29.01;100627.15;103415;1254;107941;-73
2023/05/26 09:03:34;;;;;;;11.80;4.60;;;;;;;29.70;29.46;100628.45;103802;1257;97883;-74
2023/05/26 09:06:02;;;;;;;8.70;4.30;;;;;;;29.64;29.50;100624.98;103251;1254;137930;-74
2023/05/26 09:08:30;;;;;;;11.00;3.90;;;;;;;29.29;29.97;100623.63;103619;1254;107425;-74
2023/05/26 09:10:57;;;;;;;9.10;4.40;;;;;;;28.80;30.45;100627.75;103364;1253;138244;-74
2023/05/26 09:13:26;;;;;;;7.60;4.20;;;;;;;28.32;30.48;100628.02;103315;1254;108160;-74
2023/05/26 09:15:54;;;;;;;9.60;4.70;;;;;;;28.00;30.90;100627.50;103601;1253;97804;-72
2023/05/26 09:18:43;;;;;;;10.00;4.60;;;;;;;28.21;31.45;100628.61;103389;1254;111888;-72
2023/05/26 09:21:10;;;;;;;9.70;4.40;;;;;;;28.06;31.25;100629.73;103359;1254;107872;-72
2023/05/26 09:23:37;;;;;;;15.80;4.10;;;;;;;27.93;31.23;100629.58;103337;1257;137998;-68
2023/05/26 09:26:10;;;;;;;8.30;3.90;;;;;;;27.90;31.56;100629.89;103305;1253;108206;-74
2023/05/26 09:28:37;;;;;;;11.50;4.50;;;;;;;27.78;31.63;100625.42;103375;1253;138043;-74
2023/05/26 09:31:11;;;;;;;11.40;4.80;;;;;;;27.53;31.87;100622.08;103377;1257;112169;-74
2023/05/26 09:33:47;;;;;;;11.10;4.20;;;;;;;27.42;31.98;100624.64;103634;1254;107277;-76
2023/05/26 09:36:15;;;;;;;13.90;4.40;;;;;;;27.21;32.17;100618.76;103721;1254;138431;-77
2023/05/26 09:38:43;;;;;;;8.40;4.60;;;;;;;27.08;32.49;100613.95;103432;1253;107558;-75
2023/05/26 09:41:11;;;;;;;9.00;4.30;;;;;;;27.03;32.75;100621.19;103237;1255;137972;-77
2023/05/26 09:43:39;;;;;;;10.80;4.40;;;;;;;27.03;32.87;100620.52;103408;1256;111810;-75
2023/05/26 09:46:20;;;;;;;8.20;4.30;;;;;;;27.19;32.89;100616.82;103480;1257;107321;-68
2023/05/26 09:48:52;;;;;;;13.10;4.20;;;;;;;27.47;32.35;100624.10;103417;1254;97807;-73
2023/05/26 09:51:30;;;;;;;7.20;3.70;;;;;;;27.34;31.96;100622.11;103393;1257;107333;-73
2023/05/26 09:54:05;;;;;;;10.90;4.10;;;;;;;27.14;32.28;100621.91;103332;1253;138081;-73
2023/05/26 09:56:35;;;;;;;9.60;4.20;;;;;;;27.38;32.66;100622.89;103911;1253;112480;-73
2023/05/26 09:59:07;;;;;;;12.10;4.30;;;;;;;27.59;32.27;100622.88;103639;1256;138467;-73
2023/05/26 10:01:38;;;;;;;7.50;3.70;;;;;;;27.43;31.83;100622.15;103570;1253;97785;-73
2023/05/26 10:04:07;;;;;;;10.60;4.20;;;;;;;27.17;32.10;100617.20;103770;1253;109113;-73
2023/05/26 10:06:35;;;;;;;11.30;4.30;;;;;;;27.35;32.41;100625.10;103485;1252;97752;-74
2023/05/26 10:09:04;;;;;;;7.50;3.70;;;;;;;27.31;31.64;100624.58;103983;1256;111516;-73
2023/05/26 10:11:33;;;;;;;7.60;3.70;;;;;;;27.18;32.05;100617.14;103391;1256;138094;-72
2023/05/26 10:14:01;;;;;;;9.60;3.90;;;;;;;26.99;32.10;100619.41;103463;1253;98557;-73
2023/05/26 10:16:28;;;;;;;12.20;3.80;;;;;;;26.83;32.48;100620.04;103236;1253;138078;-71
2023/05/26 10:18:57;;;;;;;9.50;3.90;;;;;;;26.66;32.47;100617.36;103377;1252;97801;-72
2023/05/26 10:21:33;;;;;;;9.90;3.60;;;;;;;26.78;32.79;100621.80;103476;1253;113309;-73
2023/05/26 10:24:05;;;;;;;10.20;4.10;;;;;;;27.07;32.71;100614.21;103354;1256;137863;-72
2023/05/26 10:26:44;;;;;;;13.90;4.40;;;;;;;27.59;33.06;100619.23;103461;1256;98169;-72
2023/05/26 10:29:16;;;;;;;7.30;3.30;;;;;;;28.06;32.02;100622.46;103796;1253;137902;-72
2023/05/26 10:31:43;;;;;;;9.40;3.60;;;;;;;28.09;31.35;100618.20;103365;1256;97832;-69
2023/05/26 10:34:36;;;;;;;12.00;4.10;;;;;;;28.26;30.49;100615.97;103437;1256;112948;-70
2023/05/26 10:37:13;;;;;;;8.20;3.50;;;;;;;28.41;30.41;100609.95;103577;1252;108226;-71
2023/05/26 10:39:41;;;;;;;11.00;3.80;;;;;;;28.48;29.77;100611.39;103430;1256;97868;-74
2023/05/26 10:42:20;;;;;;;149.60;17.20;;;;;;;28.51;29.96;100609.48;103332;1256;138044;-69
2023/05/26 10:44:51;;;;;;;139.30;15.30;;;;;;;28.63;32.00;100607.95;103421;1253;97786;-72
2023/05/26 10:47:19;;;;;;;26.70;5.20;;;;;;;28.79;30.90;100609.78;104686;1252;138108;-71
2023/05/26 10:49:58;;;;;;;25.20;5.00;;;;;;;28.77;29.87;100605.57;104779;1253;107519;-71
2023/05/26 10:52:27;;;;;;;34.30;6.30;;;;;;;28.65;30.50;100605.21;104706;1252;138309;-70
2023/05/26 10:54:56;;;;;;;13.20;4.10;;;;;;;28.69;29.82;100603.75;104773;1252;107910;-72
2023/05/26 10:57:34;;;;;;;11.50;3.80;;;;;;;28.80;29.85;100603.27;104786;1253;95852;-71
2023/05/26 11:00:20;;;;;;;12.30;4.40;;;;;;;28.99;29.49;100601.69;104703;1252;137755;-71
2023/05/26 11:02:47;;;;;;;8.00;4.10;;;;;;;29.03;28.96;100601.32;103575;1253;107848;-70
2023/05/26 11:05:31;;;;;;;11.90;3.90;;;;;;;29.01;28.82;100598.86;103591;1253;137806;-71
2023/05/26 11:07:59;;;;;;;12.40;3.70;;;;;;;28.93;28.25;100606.41;103439;1253;108715;-71
2023/05/26 11:10:27;;;;;;;8.90;3.60;;;;;;;28.63;28.30;100598.92;103669;1257;138390;-70
2023/05/26 11:12:57;;;;;;;9.80;3.70;;;;;;;28.32;28.09;100598.71;103379;1254;110107;-70
2023/05/26 11:15:29;;;;;;;7.20;3.40;;;;;;;27.91;28.46;100600.31;103520;1256;106957;-71
2023/05/26 11:18:01;;;;;;;10.00;3.40;;;;;;;27.78;28.50;100598.25;103550;1253;138345;-73
2023/05/26 11:20:30;;;;;;;16.70;4.00;;;;;;;27.64;29.06;100592.83;104085;1253;106957;-73